sensor_id;sensor_type;location;lat;lon;timestamp;temperature;humidity
27128;DHT22;14660;49.008;8.390;2022-08-03T00:01:27;24.30;99.90
27128;DHT22;14660;49.008;8.390;2022-08-03T00:03:54;24.30;99.90
27128;DHT22;14660;49.008;8.390;2022-08-03T00:06:21;24.30;99.90
27128;DHT22;14660;49.008;8.390;2022-08-03T00:08:48;24.20;99.90
27128;DHT22;14660;49.008;8.390;2022-08-03T00:11:15;24.30;99.90
27128;DHT22;14660;49.008;8.390;2022-08-03T00:13:41;24.30;99.90
27128;DHT22;14660;49.008;8.390;2022-08-03T00:16:09;24.20;99.90
27128;DHT22;14660;49.008;8.390;2022-08-03T00:18:36;24.20;99.90
27128;DHT22;14660;49.008;8.390;2022-08-03T00:21:03;24.20;99.90
27128;DHT22;14660;49.008;8.390;2022-08-03T00:23:30;24.10;99.90
27128;DHT22;14660;49.008;8.390;2022-08-03T00:25:57;24.10;99.90
27128;DHT22;14660;49.008;8.390;2022-08-03T00:28:24;24.10;99.90
27128;DHT22;14660;49.008;8.390;2022-08-03T00:30:50;24.00;99.90
27128;DHT22;14660;49.008;8.390;2022-08-03T00:33:18;24.00;99.90
27128;DHT22;14660;49.008;8.390;2022-08-03T00:35:45;24.00;99.90
27128;DHT22;14660;49.008;8.390;2022-08-03T00:38:12;24.00;99.90
27128;DHT22;14660;49.008;8.390;2022-08-03T00:40:39;23.90;99.90
27128;DHT22;14660;49.008;8.390;2022-08-03T00:43:07;23.80;99.90
27128;DHT22;14660;49.008;8.390;2022-08-03T00:45:36;23.80;99.90
27128;DHT22;14660;49.008;8.390;2022-08-03T00:48:04;23.70;99.90
27128;DHT22;14660;49.008;8.390;2022-08-03T00:50:34;23.70;99.90
27128;DHT22;14660;49.008;8.390;2022-08-03T00:53:04;23.70;99.90
27128;DHT22;14660;49.008;8.390;2022-08-03T00:55:31;23.70;99.90
27128;DHT22;14660;49.008;8.390;2022-08-03T00:57:59;23.60;99.90
27128;DHT22;14660;49.008;8.390;2022-08-03T01:00:30;23.70;99.90
27128;DHT22;14660;49.008;8.390;2022-08-03T01:02:59;23.60;99.90
27128;DHT22;14660;49.008;8.390;2022-08-03T01:05:26;23.60;99.90
27128;DHT22;14660;49.008;8.390;2022-08-03T01:14:20;23.50;99.90
27128;DHT22;14660;49.008;8.390;2022-08-03T01:17:14;23.40;99.90
27128;DHT22;14660;49.008;8.390;2022-08-03T01:20:08;23.30;99.90
27128;DHT22;14660;49.008;8.390;2022-08-03T01:32:08;23.30;99.90
27128;DHT22;14660;49.008;8.390;2022-08-03T01:34:41;23.30;99.90
27128;DHT22;14660;49.008;8.390;2022-08-03T01:37:10;23.30;99.90
27128;DHT22;14660;49.008;8.390;2022-08-03T01:39:38;23.20;99.90
27128;DHT22;14660;49.008;8.390;2022-08-03T01:42:07;23.20;99.90
27128;DHT22;14660;49.008;8.390;2022-08-03T01:44:40;23.20;99.90
27128;DHT22;14660;49.008;8.390;2022-08-03T01:47:09;23.10;99.90
27128;DHT22;14660;49.008;8.390;2022-08-03T01:49:42;23.00;99.90
27128;DHT22;14660;49.008;8.390;2022-08-03T01:52:11;23.00;99.90
27128;DHT22;14660;49.008;8.390;2022-08-03T01:54:45;22.90;99.90
27128;DHT22;14660;49.008;8.390;2022-08-03T01:57:14;22.80;99.90
27128;DHT22;14660;49.008;8.390;2022-08-03T01:59:42;22.80;99.90
27128;DHT22;14660;49.008;8.390;2022-08-03T02:02:13;22.80;99.90
27128;DHT22;14660;49.008;8.390;2022-08-03T02:04:46;22.90;99.90
27128;DHT22;14660;49.008;8.390;2022-08-03T02:07:15;22.80;99.90
27128;DHT22;14660;49.008;8.390;2022-08-03T02:09:44;22.80;99.90
27128;DHT22;14660;49.008;8.390;2022-08-03T02:12:13;22.70;99.90
27128;DHT22;14660;49.008;8.390;2022-08-03T02:14:42;22.70;99.90
27128;DHT22;14660;49.008;8.390;2022-08-03T02:17:10;22.60;99.90
27128;DHT22;14660;49.008;8.390;2022-08-03T02:19:38;22.50;99.90
27128;DHT22;14660;49.008;8.390;2022-08-03T02:22:09;22.30;99.90
27128;DHT22;14660;49.008;8.390;2022-08-03T02:24:36;22.30;99.90
27128;DHT22;14660;49.008;8.390;2022-08-03T02:27:12;22.30;99.90
27128;DHT22;14660;49.008;8.390;2022-08-03T02:29:41;22.30;99.90
27128;DHT22;14660;49.008;8.390;2022-08-03T02:32:17;22.20;99.90
27128;DHT22;14660;49.008;8.390;2022-08-03T02:34:49;22.10;99.90
27128;DHT22;14660;49.008;8.390;2022-08-03T02:37:18;22.00;99.90
27128;DHT22;14660;49.008;8.390;2022-08-03T02:39:46;22.10;99.90
27128;DHT22;14660;49.008;8.390;2022-08-03T02:42:15;22.10;99.90
27128;DHT22;14660;49.008;8.390;2022-08-03T02:44:47;22.20;99.90
27128;DHT22;14660;49.008;8.390;2022-08-03T02:47:18;22.10;99.90
27128;DHT22;14660;49.008;8.390;2022-08-03T02:49:48;22.10;99.90
27128;DHT22;14660;49.008;8.390;2022-08-03T02:52:16;22.00;99.90
27128;DHT22;14660;49.008;8.390;2022-08-03T02:57:13;21.60;99.90
27128;DHT22;14660;49.008;8.390;2022-08-03T02:59:41;21.50;99.90
27128;DHT22;14660;49.008;8.390;2022-08-03T03:02:09;21.40;99.90
27128;DHT22;14660;49.008;8.390;2022-08-03T03:04:38;21.60;99.90
27128;DHT22;14660;49.008;8.390;2022-08-03T03:07:05;21.60;99.90
27128;DHT22;14660;49.008;8.390;2022-08-03T03:09:33;21.70;99.90
27128;DHT22;14660;49.008;8.390;2022-08-03T03:12:01;21.60;99.90
27128;DHT22;14660;49.008;8.390;2022-08-03T03:14:28;21.60;99.90
27128;DHT22;14660;49.008;8.390;2022-08-03T03:16:57;21.50;99.90
27128;DHT22;14660;49.008;8.390;2022-08-03T03:19:24;21.50;99.90
27128;DHT22;14660;49.008;8.390;2022-08-03T03:21:52;21.40;99.90
27128;DHT22;14660;49.008;8.390;2022-08-03T03:24:19;21.40;99.90
27128;DHT22;14660;49.008;8.390;2022-08-03T03:26:47;21.40;99.90
27128;DHT22;14660;49.008;8.390;2022-08-03T03:29:15;21.40;99.90
27128;DHT22;14660;49.008;8.390;2022-08-03T03:31:42;21.30;99.90
27128;DHT22;14660;49.008;8.390;2022-08-03T03:34:09;21.40;99.90
27128;DHT22;14660;49.008;8.390;2022-08-03T03:36:35;21.20;99.90
27128;DHT22;14660;49.008;8.390;2022-08-03T03:39:02;21.00;99.90
27128;DHT22;14660;49.008;8.390;2022-08-03T03:41:29;21.00;99.90
27128;DHT22;14660;49.008;8.390;2022-08-03T03:43:57;21.10;99.90
27128;DHT22;14660;49.008;8.390;2022-08-03T03:46:25;21.20;99.90
27128;DHT22;14660;49.008;8.390;2022-08-03T03:48:52;21.40;99.90
27128;DHT22;14660;49.008;8.390;2022-08-03T03:51:19;21.20;99.90
27128;DHT22;14660;49.008;8.390;2022-08-03T03:54:00;21.30;99.90
27128;DHT22;14660;49.008;8.390;2022-08-03T03:56:27;21.40;99.90
27128;DHT22;14660;49.008;8.390;2022-08-03T03:58:54;21.30;99.90
27128;DHT22;14660;49.008;8.390;2022-08-03T04:01:22;21.40;99.90
27128;DHT22;14660;49.008;8.390;2022-08-03T04:03:49;21.50;99.90
27128;DHT22;14660;49.008;8.390;2022-08-03T04:06:16;21.50;99.90
27128;DHT22;14660;49.008;8.390;2022-08-03T04:09:03;21.30;99.90
27128;DHT22;14660;49.008;8.390;2022-08-03T04:12:07;21.20;99.90
27128;DHT22;14660;49.008;8.390;2022-08-03T04:14:37;21.00;99.90
27128;DHT22;14660;49.008;8.390;2022-08-03T04:17:06;21.00;99.90
27128;DHT22;14660;49.008;8.390;2022-08-03T04:19:52;21.10;99.90
27128;DHT22;14660;49.008;8.390;2022-08-03T04:22:24;21.30;99.90
27128;DHT22;14660;49.008;8.390;2022-08-03T04:24:59;21.20;99.90
27128;DHT22;14660;49.008;8.390;2022-08-03T04:27:32;21.10;99.90
27128;DHT22;14660;49.008;8.390;2022-08-03T04:30:02;21.00;99.90
27128;DHT22;14660;49.008;8.390;2022-08-03T04:32:30;21.00;99.90
27128;DHT22;14660;49.008;8.390;2022-08-03T04:34:57;21.10;99.90
27128;DHT22;14660;49.008;8.390;2022-08-03T04:37:42;21.00;99.90
27128;DHT22;14660;49.008;8.390;2022-08-03T04:40:19;21.00;99.90
27128;DHT22;14660;49.008;8.390;2022-08-03T04:42:48;21.10;99.90
27128;DHT22;14660;49.008;8.390;2022-08-03T04:45:16;21.20;99.90
27128;DHT22;14660;49.008;8.390;2022-08-03T04:47:44;21.30;99.90
27128;DHT22;14660;49.008;8.390;2022-08-03T04:50:11;21.40;99.90
27128;DHT22;14660;49.008;8.390;2022-08-03T04:52:39;21.50;99.90
27128;DHT22;14660;49.008;8.390;2022-08-03T04:55:06;21.50;99.90
27128;DHT22;14660;49.008;8.390;2022-08-03T04:57:33;21.50;99.90
27128;DHT22;14660;49.008;8.390;2022-08-03T05:00:00;21.40;99.90
27128;DHT22;14660;49.008;8.390;2022-08-03T05:02:27;21.30;99.90
27128;DHT22;14660;49.008;8.390;2022-08-03T05:04:54;21.40;99.90
27128;DHT22;14660;49.008;8.390;2022-08-03T05:07:20;21.50;99.90
27128;DHT22;14660;49.008;8.390;2022-08-03T05:09:47;21.60;99.90
27128;DHT22;14660;49.008;8.390;2022-08-03T05:12:14;21.90;99.90
27128;DHT22;14660;49.008;8.390;2022-08-03T05:14:41;21.90;99.90
27128;DHT22;14660;49.008;8.390;2022-08-03T05:17:08;21.90;99.90
27128;DHT22;14660;49.008;8.390;2022-08-03T05:19:35;22.00;99.90
27128;DHT22;14660;49.008;8.390;2022-08-03T05:22:02;22.30;99.90
27128;DHT22;14660;49.008;8.390;2022-08-03T05:24:32;22.50;99.90
27128;DHT22;14660;49.008;8.390;2022-08-03T05:26:59;22.60;99.90
27128;DHT22;14660;49.008;8.390;2022-08-03T05:29:25;22.60;99.90
27128;DHT22;14660;49.008;8.390;2022-08-03T05:31:52;22.60;99.90
27128;DHT22;14660;49.008;8.390;2022-08-03T05:34:18;22.80;99.90
27128;DHT22;14660;49.008;8.390;2022-08-03T05:36:45;23.10;99.90
27128;DHT22;14660;49.008;8.390;2022-08-03T05:39:12;23.20;99.90
27128;DHT22;14660;49.008;8.390;2022-08-03T05:41:39;23.20;99.90
27128;DHT22;14660;49.008;8.390;2022-08-03T05:44:06;23.10;99.90
27128;DHT22;14660;49.008;8.390;2022-08-03T05:46:32;23.10;99.90
27128;DHT22;14660;49.008;8.390;2022-08-03T05:48:59;23.20;99.90
27128;DHT22;14660;49.008;8.390;2022-08-03T05:51:26;23.10;99.90
27128;DHT22;14660;49.008;8.390;2022-08-03T05:53:54;23.30;99.90
27128;DHT22;14660;49.008;8.390;2022-08-03T05:56:23;23.50;99.90
27128;DHT22;14660;49.008;8.390;2022-08-03T05:58:51;23.70;99.90
27128;DHT22;14660;49.008;8.390;2022-08-03T06:01:19;23.80;99.90
27128;DHT22;14660;49.008;8.390;2022-08-03T06:03:50;23.70;99.90
27128;DHT22;14660;49.008;8.390;2022-08-03T06:06:17;23.80;99.90
27128;DHT22;14660;49.008;8.390;2022-08-03T06:08:45;23.70;99.90
27128;DHT22;14660;49.008;8.390;2022-08-03T06:11:12;23.90;99.90
27128;DHT22;14660;49.008;8.390;2022-08-03T06:13:39;24.10;99.90
27128;DHT22;14660;49.008;8.390;2022-08-03T06:16:06;24.30;99.90
27128;DHT22;14660;49.008;8.390;2022-08-03T06:18:34;24.50;99.90
27128;DHT22;14660;49.008;8.390;2022-08-03T06:21:01;24.70;99.90
27128;DHT22;14660;49.008;8.390;2022-08-03T06:23:28;24.80;99.90
27128;DHT22;14660;49.008;8.390;2022-08-03T06:25:55;25.00;99.90
27128;DHT22;14660;49.008;8.390;2022-08-03T06:28:22;25.20;99.90
27128;DHT22;14660;49.008;8.390;2022-08-03T06:30:49;25.30;99.90
27128;DHT22;14660;49.008;8.390;2022-08-03T06:33:16;25.40;99.90
27128;DHT22;14660;49.008;8.390;2022-08-03T06:35:43;25.40;99.90
27128;DHT22;14660;49.008;8.390;2022-08-03T06:38:10;25.50;99.90
27128;DHT22;14660;49.008;8.390;2022-08-03T06:40:38;25.70;99.90
27128;DHT22;14660;49.008;8.390;2022-08-03T06:43:07;25.70;99.90
27128;DHT22;14660;49.008;8.390;2022-08-03T06:45:34;25.80;99.90
27128;DHT22;14660;49.008;8.390;2022-08-03T06:48:20;25.90;99.90
27128;DHT22;14660;49.008;8.390;2022-08-03T06:50:46;25.80;99.90
27128;DHT22;14660;49.008;8.390;2022-08-03T06:53:13;25.90;99.90
27128;DHT22;14660;49.008;8.390;2022-08-03T06:55:40;26.10;99.90
27128;DHT22;14660;49.008;8.390;2022-08-03T06:58:07;26.20;99.90
27128;DHT22;14660;49.008;8.390;2022-08-03T07:00:33;26.30;99.90
27128;DHT22;14660;49.008;8.390;2022-08-03T07:03:00;26.30;99.90
27128;DHT22;14660;49.008;8.390;2022-08-03T07:05:27;26.50;99.90
27128;DHT22;14660;49.008;8.390;2022-08-03T07:07:57;26.60;99.90
27128;DHT22;14660;49.008;8.390;2022-08-03T07:10:25;26.80;99.90
27128;DHT22;14660;49.008;8.390;2022-08-03T07:12:53;26.90;99.90
27128;DHT22;14660;49.008;8.390;2022-08-03T07:15:20;26.90;99.90
27128;DHT22;14660;49.008;8.390;2022-08-03T07:17:47;26.90;99.90
27128;DHT22;14660;49.008;8.390;2022-08-03T07:20:14;27.00;99.90
27128;DHT22;14660;49.008;8.390;2022-08-03T07:22:43;27.10;99.90
27128;DHT22;14660;49.008;8.390;2022-08-03T07:25:10;27.20;99.90
27128;DHT22;14660;49.008;8.390;2022-08-03T07:27:37;27.30;99.90
27128;DHT22;14660;49.008;8.390;2022-08-03T07:30:08;27.40;99.90
27128;DHT22;14660;49.008;8.390;2022-08-03T07:32:35;27.50;99.90
27128;DHT22;14660;49.008;8.390;2022-08-03T07:35:03;27.50;99.90
27128;DHT22;14660;49.008;8.390;2022-08-03T07:37:30;27.60;99.90
27128;DHT22;14660;49.008;8.390;2022-08-03T07:39:57;27.70;99.90
27128;DHT22;14660;49.008;8.390;2022-08-03T07:42:26;27.70;99.90
27128;DHT22;14660;49.008;8.390;2022-08-03T07:44:51;27.80;99.90
27128;DHT22;14660;49.008;8.390;2022-08-03T07:47:27;27.80;99.90
27128;DHT22;14660;49.008;8.390;2022-08-03T07:49:54;27.80;99.90
27128;DHT22;14660;49.008;8.390;2022-08-03T07:52:21;28.00;99.90
27128;DHT22;14660;49.008;8.390;2022-08-03T07:55:06;28.00;99.90
27128;DHT22;14660;49.008;8.390;2022-08-03T07:57:34;28.20;99.90
27128;DHT22;14660;49.008;8.390;2022-08-03T08:00:02;28.30;99.90
27128;DHT22;14660;49.008;8.390;2022-08-03T08:02:29;28.50;99.90
27128;DHT22;14660;49.008;8.390;2022-08-03T08:04:56;28.60;99.90
27128;DHT22;14660;49.008;8.390;2022-08-03T08:07:22;28.60;99.90
27128;DHT22;14660;49.008;8.390;2022-08-03T08:09:51;28.70;99.90
27128;DHT22;14660;49.008;8.390;2022-08-03T08:12:18;28.70;99.90
27128;DHT22;14660;49.008;8.390;2022-08-03T08:14:45;28.80;99.90
27128;DHT22;14660;49.008;8.390;2022-08-03T08:17:13;28.90;99.90
27128;DHT22;14660;49.008;8.390;2022-08-03T08:19:40;28.90;99.90
27128;DHT22;14660;49.008;8.390;2022-08-03T08:22:07;29.00;99.90
27128;DHT22;14660;49.008;8.390;2022-08-03T08:24:33;29.20;99.90
27128;DHT22;14660;49.008;8.390;2022-08-03T08:27:00;29.30;99.90
27128;DHT22;14660;49.008;8.390;2022-08-03T08:29:27;29.40;99.90
27128;DHT22;14660;49.008;8.390;2022-08-03T08:31:54;29.50;99.90
27128;DHT22;14660;49.008;8.390;2022-08-03T08:34:21;29.50;99.90
27128;DHT22;14660;49.008;8.390;2022-08-03T08:36:48;29.60;99.90
27128;DHT22;14660;49.008;8.390;2022-08-03T08:39:14;29.60;99.90
27128;DHT22;14660;49.008;8.390;2022-08-03T08:41:41;29.70;99.90
27128;DHT22;14660;49.008;8.390;2022-08-03T08:44:08;29.70;99.90
27128;DHT22;14660;49.008;8.390;2022-08-03T08:46:37;29.90;99.90
27128;DHT22;14660;49.008;8.390;2022-08-03T08:49:06;29.90;99.90
27128;DHT22;14660;49.008;8.390;2022-08-03T08:51:35;29.90;99.90
27128;DHT22;14660;49.008;8.390;2022-08-03T08:54:07;29.90;99.90
27128;DHT22;14660;49.008;8.390;2022-08-03T08:56:35;30.00;99.90
27128;DHT22;14660;49.008;8.390;2022-08-03T08:59:04;30.10;99.90
27128;DHT22;14660;49.008;8.390;2022-08-03T09:01:32;30.10;99.90
27128;DHT22;14660;49.008;8.390;2022-08-03T09:03:59;30.10;99.90
27128;DHT22;14660;49.008;8.390;2022-08-03T09:06:26;30.20;99.90
27128;DHT22;14660;49.008;8.390;2022-08-03T09:08:53;30.20;99.90
27128;DHT22;14660;49.008;8.390;2022-08-03T09:11:22;30.20;99.90
27128;DHT22;14660;49.008;8.390;2022-08-03T09:13:49;30.30;99.90
27128;DHT22;14660;49.008;8.390;2022-08-03T09:16:21;30.30;99.90
27128;DHT22;14660;49.008;8.390;2022-08-03T09:18:52;30.40;99.90
27128;DHT22;14660;49.008;8.390;2022-08-03T09:21:25;30.40;99.90
27128;DHT22;14660;49.008;8.390;2022-08-03T09:23:54;30.60;99.90
27128;DHT22;14660;49.008;8.390;2022-08-03T09:26:28;30.60;99.90
27128;DHT22;14660;49.008;8.390;2022-08-03T09:28:56;30.60;99.90
27128;DHT22;14660;49.008;8.390;2022-08-03T09:31:42;30.80;99.90
27128;DHT22;14660;49.008;8.390;2022-08-03T09:34:10;30.80;99.90
27128;DHT22;14660;49.008;8.390;2022-08-03T09:36:54;30.80;99.90
27128;DHT22;14660;49.008;8.390;2022-08-03T09:39:25;30.80;99.90
27128;DHT22;14660;49.008;8.390;2022-08-03T09:42:17;31.00;99.90
27128;DHT22;14660;49.008;8.390;2022-08-03T09:44:49;31.00;99.90
27128;DHT22;14660;49.008;8.390;2022-08-03T09:47:26;31.00;99.90
27128;DHT22;14660;49.008;8.390;2022-08-03T09:50:08;31.10;99.90
27128;DHT22;14660;49.008;8.390;2022-08-03T09:52:52;31.10;99.90
27128;DHT22;14660;49.008;8.390;2022-08-03T09:55:19;31.00;99.90
27128;DHT22;14660;49.008;8.390;2022-08-03T09:57:47;31.10;99.90
27128;DHT22;14660;49.008;8.390;2022-08-03T10:00:15;31.20;99.90
27128;DHT22;14660;49.008;8.390;2022-08-03T10:02:43;31.20;99.90
27128;DHT22;14660;49.008;8.390;2022-08-03T10:05:12;31.20;99.90
27128;DHT22;14660;49.008;8.390;2022-08-03T10:07:47;31.10;99.90
27128;DHT22;14660;49.008;8.390;2022-08-03T10:10:15;31.10;99.90
27128;DHT22;14660;49.008;8.390;2022-08-03T10:12:43;31.10;99.90
27128;DHT22;14660;49.008;8.390;2022-08-03T10:15:10;31.10;99.90
27128;DHT22;14660;49.008;8.390;2022-08-03T10:17:38;31.10;99.90
27128;DHT22;14660;49.008;8.390;2022-08-03T10:20:04;31.20;99.90
27128;DHT22;14660;49.008;8.390;2022-08-03T10:22:36;31.20;99.90
27128;DHT22;14660;49.008;8.390;2022-08-03T10:25:24;31.20;99.90
27128;DHT22;14660;49.008;8.390;2022-08-03T10:27:51;31.20;99.90
27128;DHT22;14660;49.008;8.390;2022-08-03T10:30:18;31.20;99.90
27128;DHT22;14660;49.008;8.390;2022-08-03T10:32:54;31.20;99.90
27128;DHT22;14660;49.008;8.390;2022-08-03T10:35:25;31.30;99.90
27128;DHT22;14660;49.008;8.390;2022-08-03T10:38:12;31.30;99.90
27128;DHT22;14660;49.008;8.390;2022-08-03T10:40:42;31.30;99.90
27128;DHT22;14660;49.008;8.390;2022-08-03T10:43:41;31.30;99.90
27128;DHT22;14660;49.008;8.390;2022-08-03T10:46:07;31.20;99.90
27128;DHT22;14660;49.008;8.390;2022-08-03T10:48:35;31.30;99.90
27128;DHT22;14660;49.008;8.390;2022-08-03T10:51:02;31.30;99.90
27128;DHT22;14660;49.008;8.390;2022-08-03T10:53:39;31.30;99.90
27128;DHT22;14660;49.008;8.390;2022-08-03T10:59:16;31.50;99.90
27128;DHT22;14660;49.008;8.390;2022-08-03T11:01:56;31.40;99.90
27128;DHT22;14660;49.008;8.390;2022-08-03T11:04:23;31.30;99.90
27128;DHT22;14660;49.008;8.390;2022-08-03T11:09:49;31.50;99.90
27128;DHT22;14660;49.008;8.390;2022-08-03T11:12:21;31.50;99.90
27128;DHT22;14660;49.008;8.390;2022-08-03T11:14:48;31.60;99.90
27128;DHT22;14660;49.008;8.390;2022-08-03T11:17:15;31.50;99.90
27128;DHT22;14660;49.008;8.390;2022-08-03T11:19:51;31.50;99.90
27128;DHT22;14660;49.008;8.390;2022-08-03T11:22:19;31.50;99.90
27128;DHT22;14660;49.008;8.390;2022-08-03T11:25:04;31.50;99.90
27128;DHT22;14660;49.008;8.390;2022-08-03T11:27:32;31.60;99.90
27128;DHT22;14660;49.008;8.390;2022-08-03T11:33:03;31.60;99.90
27128;DHT22;14660;49.008;8.390;2022-08-03T11:35:57;31.50;99.90
27128;DHT22;14660;49.008;8.390;2022-08-03T11:38:25;31.50;99.90
27128;DHT22;14660;49.008;8.390;2022-08-03T11:40:53;31.50;99.90
27128;DHT22;14660;49.008;8.390;2022-08-03T11:46:12;31.50;99.90
27128;DHT22;14660;49.008;8.390;2022-08-03T11:48:49;31.50;99.90
27128;DHT22;14660;49.008;8.390;2022-08-03T11:51:34;31.60;99.90
27128;DHT22;14660;49.008;8.390;2022-08-03T11:54:05;31.60;99.90
27128;DHT22;14660;49.008;8.390;2022-08-03T11:56:49;31.50;99.90
27128;DHT22;14660;49.008;8.390;2022-08-03T11:59:16;31.60;99.90
27128;DHT22;14660;49.008;8.390;2022-08-03T12:01:45;31.60;99.90
27128;DHT22;14660;49.008;8.390;2022-08-03T12:04:12;31.70;99.90
27128;DHT22;14660;49.008;8.390;2022-08-03T12:06:59;31.70;99.90
27128;DHT22;14660;49.008;8.390;2022-08-03T12:09:26;31.70;99.90
27128;DHT22;14660;49.008;8.390;2022-08-03T12:11:54;31.70;99.90
27128;DHT22;14660;49.008;8.390;2022-08-03T12:14:20;31.70;99.90
27128;DHT22;14660;49.008;8.390;2022-08-03T12:16:48;31.70;99.90
27128;DHT22;14660;49.008;8.390;2022-08-03T12:19:15;31.80;99.90
27128;DHT22;14660;49.008;8.390;2022-08-03T12:21:49;31.80;99.90
27128;DHT22;14660;49.008;8.390;2022-08-03T12:24:16;31.80;99.90
27128;DHT22;14660;49.008;8.390;2022-08-03T12:26:49;31.80;99.90
27128;DHT22;14660;49.008;8.390;2022-08-03T12:29:23;31.80;99.90
27128;DHT22;14660;49.008;8.390;2022-08-03T12:31:51;31.80;99.90
27128;DHT22;14660;49.008;8.390;2022-08-03T12:34:18;31.80;99.90
27128;DHT22;14660;49.008;8.390;2022-08-03T12:36:53;31.80;99.90
27128;DHT22;14660;49.008;8.390;2022-08-03T12:39:25;31.80;99.90
27128;DHT22;14660;49.008;8.390;2022-08-03T12:41:54;31.90;99.90
27128;DHT22;14660;49.008;8.390;2022-08-03T12:44:32;31.90;99.90
27128;DHT22;14660;49.008;8.390;2022-08-03T12:47:00;32.00;99.90
27128;DHT22;14660;49.008;8.390;2022-08-03T12:49:27;31.90;99.90
27128;DHT22;14660;49.008;8.390;2022-08-03T12:52:12;32.00;99.90
27128;DHT22;14660;49.008;8.390;2022-08-03T12:54:39;32.10;99.90
27128;DHT22;14660;49.008;8.390;2022-08-03T12:57:09;32.10;99.90
27128;DHT22;14660;49.008;8.390;2022-08-03T12:59:54;32.30;99.90
27128;DHT22;14660;49.008;8.390;2022-08-03T13:02:25;32.40;99.90
27128;DHT22;14660;49.008;8.390;2022-08-03T13:04:53;32.40;99.90
27128;DHT22;14660;49.008;8.390;2022-08-03T13:07:21;32.30;99.90
27128;DHT22;14660;49.008;8.390;2022-08-03T13:10:07;32.30;99.90
27128;DHT22;14660;49.008;8.390;2022-08-03T13:12:48;32.30;99.90
27128;DHT22;14660;49.008;8.390;2022-08-03T13:15:15;32.30;99.90
27128;DHT22;14660;49.008;8.390;2022-08-03T13:17:42;32.30;99.90
27128;DHT22;14660;49.008;8.390;2022-08-03T13:20:10;32.30;99.90
27128;DHT22;14660;49.008;8.390;2022-08-03T13:22:37;32.40;99.90
27128;DHT22;14660;49.008;8.390;2022-08-03T13:25:04;32.40;99.90
27128;DHT22;14660;49.008;8.390;2022-08-03T13:27:31;32.40;99.90
27128;DHT22;14660;49.008;8.390;2022-08-03T13:29:58;32.40;99.90
27128;DHT22;14660;49.008;8.390;2022-08-03T13:32:25;32.40;99.90
27128;DHT22;14660;49.008;8.390;2022-08-03T13:34:52;32.40;99.90
27128;DHT22;14660;49.008;8.390;2022-08-03T13:37:19;32.40;99.90
27128;DHT22;14660;49.008;8.390;2022-08-03T13:39:46;32.40;99.90
27128;DHT22;14660;49.008;8.390;2022-08-03T13:42:13;32.40;99.90
27128;DHT22;14660;49.008;8.390;2022-08-03T13:44:40;32.40;99.90
27128;DHT22;14660;49.008;8.390;2022-08-03T13:47:07;32.40;99.90
27128;DHT22;14660;49.008;8.390;2022-08-03T13:49:33;32.40;99.90
27128;DHT22;14660;49.008;8.390;2022-08-03T13:52:00;32.40;99.90
27128;DHT22;14660;49.008;8.390;2022-08-03T13:54:28;32.40;99.90
27128;DHT22;14660;49.008;8.390;2022-08-03T13:56:55;32.30;99.90
27128;DHT22;14660;49.008;8.390;2022-08-03T13:59:23;32.40;99.90
27128;DHT22;14660;49.008;8.390;2022-08-03T14:01:51;32.30;99.90
27128;DHT22;14660;49.008;8.390;2022-08-03T14:04:19;32.30;99.90
27128;DHT22;14660;49.008;8.390;2022-08-03T14:06:46;32.30;99.90
27128;DHT22;14660;49.008;8.390;2022-08-03T14:09:14;32.30;99.90
27128;DHT22;14660;49.008;8.390;2022-08-03T14:11:44;32.40;99.90
27128;DHT22;14660;49.008;8.390;2022-08-03T14:14:11;32.50;99.70
27128;DHT22;14660;49.008;8.390;2022-08-03T14:16:38;32.50;99.90
27128;DHT22;14660;49.008;8.390;2022-08-03T14:19:06;32.50;99.70
27128;DHT22;14660;49.008;8.390;2022-08-03T14:21:33;32.50;99.80
27128;DHT22;14660;49.008;8.390;2022-08-03T14:24:01;32.50;99.90
27128;DHT22;14660;49.008;8.390;2022-08-03T14:26:28;32.50;99.90
27128;DHT22;14660;49.008;8.390;2022-08-03T14:28:56;32.60;99.90
27128;DHT22;14660;49.008;8.390;2022-08-03T14:31:23;32.50;99.90
27128;DHT22;14660;49.008;8.390;2022-08-03T14:33:50;32.50;99.90
27128;DHT22;14660;49.008;8.390;2022-08-03T14:36:16;32.50;99.90
27128;DHT22;14660;49.008;8.390;2022-08-03T14:38:43;32.40;99.90
27128;DHT22;14660;49.008;8.390;2022-08-03T14:41:10;32.50;99.90
27128;DHT22;14660;49.008;8.390;2022-08-03T14:43:37;32.50;99.50
27128;DHT22;14660;49.008;8.390;2022-08-03T14:46:02;32.40;99.60
27128;DHT22;14660;49.008;8.390;2022-08-03T14:48:29;32.50;99.90
27128;DHT22;14660;49.008;8.390;2022-08-03T14:50:56;32.50;99.90
27128;DHT22;14660;49.008;8.390;2022-08-03T14:53:23;32.50;99.90
27128;DHT22;14660;49.008;8.390;2022-08-03T14:55:50;32.50;99.90
27128;DHT22;14660;49.008;8.390;2022-08-03T14:58:19;32.50;99.90
27128;DHT22;14660;49.008;8.390;2022-08-03T15:00:46;32.60;99.90
27128;DHT22;14660;49.008;8.390;2022-08-03T15:03:13;32.60;99.80
27128;DHT22;14660;49.008;8.390;2022-08-03T15:05:40;32.50;99.70
27128;DHT22;14660;49.008;8.390;2022-08-03T15:08:06;32.50;99.90
27128;DHT22;14660;49.008;8.390;2022-08-03T15:10:33;32.60;99.70
27128;DHT22;14660;49.008;8.390;2022-08-03T15:13:00;32.60;99.40
27128;DHT22;14660;49.008;8.390;2022-08-03T15:15:27;32.60;99.70
27128;DHT22;14660;49.008;8.390;2022-08-03T15:17:54;32.60;99.70
27128;DHT22;14660;49.008;8.390;2022-08-03T15:20:21;32.60;99.50
27128;DHT22;14660;49.008;8.390;2022-08-03T15:22:47;32.70;99.40
27128;DHT22;14660;49.008;8.390;2022-08-03T15:25:14;32.70;99.70
27128;DHT22;14660;49.008;8.390;2022-08-03T15:27:41;32.60;99.30
27128;DHT22;14660;49.008;8.390;2022-08-03T15:30:10;32.60;99.00
27128;DHT22;14660;49.008;8.390;2022-08-03T15:32:37;32.60;99.20
27128;DHT22;14660;49.008;8.390;2022-08-03T15:35:04;32.60;99.50
27128;DHT22;14660;49.008;8.390;2022-08-03T15:37:31;32.50;99.30
27128;DHT22;14660;49.008;8.390;2022-08-03T15:39:58;32.50;99.20
27128;DHT22;14660;49.008;8.390;2022-08-03T15:42:25;32.50;99.40
27128;DHT22;14660;49.008;8.390;2022-08-03T15:44:52;32.50;99.30
27128;DHT22;14660;49.008;8.390;2022-08-03T15:47:19;32.50;99.50
27128;DHT22;14660;49.008;8.390;2022-08-03T15:49:45;32.40;99.60
27128;DHT22;14660;49.008;8.390;2022-08-03T15:52:12;32.50;99.40
27128;DHT22;14660;49.008;8.390;2022-08-03T15:54:39;32.50;99.20
27128;DHT22;14660;49.008;8.390;2022-08-03T15:57:06;32.50;99.50
27128;DHT22;14660;49.008;8.390;2022-08-03T15:59:33;32.40;99.70
27128;DHT22;14660;49.008;8.390;2022-08-03T16:02:00;32.40;99.50
27128;DHT22;14660;49.008;8.390;2022-08-03T16:04:28;32.30;99.70
27128;DHT22;14660;49.008;8.390;2022-08-03T16:06:54;32.30;99.90
27128;DHT22;14660;49.008;8.390;2022-08-03T16:09:21;32.20;99.40
27128;DHT22;14660;49.008;8.390;2022-08-03T16:11:48;32.30;99.00
27128;DHT22;14660;49.008;8.390;2022-08-03T16:14:15;32.40;98.70